Time;durP1;ratioP1;P1;durP2;ratioP2;P2;SDS_P1;SDS_P2;PMS_P1;PMS_P2;Temp;Humidity;BMP_temperature;BMP_pressure;BME280_temperature;BME280_humidity;BME280_pressure;Samples;Min_cycle;Max_cycle;Signal;HPM_P1;HPM_P2
2023/02/13 00:01:33;;;;;;;7.28;5.45;;;;;;;;;;10212915;28;20039;-82
2023/02/13 00:06:36;;;;;;;9.13;5.65;;;;;;;;;;10224633;28;20048;-82
2023/02/13 00:11:41;;;;;;;7.65;4.72;;;;;;;;;;10224412;28;20050;-82
2023/02/13 00:16:45;;;;;;;7.47;4.90;;;;;;;;;;10224333;28;20055;-82
2023/02/13 00:21:48;;;;;;;6.70;4.30;;;;;;;;;;10220472;28;20408;-82
2023/02/13 00:26:53;;;;;;;7.28;4.57;;;;;;;;;;10207478;28;20055;-80
2023/02/13 00:31:56;;;;;;;7.78;5.28;;;;;;;;;;10209925;28;20043;-80
2023/02/13 00:36:59;;;;;;;7.28;5.00;;;;;;;;;;10220808;28;20085;-80
2023/02/13 00:42:04;;;;;;;6.78;4.28;;;;;;;;;;10220867;28;20569;-80
2023/02/13 00:47:08;;;;;;;6.03;3.83;;;;;;;;;;10226466;28;20047;-81
2023/02/13 00:52:12;;;;;;;6.38;4.35;;;;;;;;;;10244804;28;20070;-80
2023/02/13 00:57:17;;;;;;;6.13;3.75;;;;;;;;;;10231397;28;20290;-80
2023/02/13 01:02:20;;;;;;;4.40;3.33;;;;;;;;;;10216631;28;20047;-80
2023/02/13 01:07:23;;;;;;;5.07;3.63;;;;;;;;;;10214494;28;20515;-81
2023/02/13 01:12:28;;;;;;;5.63;3.50;;;;;;;;;;10223038;28;20049;-82
2023/02/13 01:17:31;;;;;;;5.30;3.78;;;;;;;;;;10219142;28;20050;-81
2023/02/13 01:22:35;;;;;;;4.35;3.33;;;;;;;;;;10235393;28;20566;-81
2023/02/13 01:27:40;;;;;;;3.78;2.75;;;;;;;;;;10217081;28;20051;-81
2023/02/13 01:32:45;;;;;;;4.60;2.95;;;;;;;;;;10221204;28;20039;-81
2023/02/13 01:37:48;;;;;;;4.55;2.90;;;;;;;;;;10221523;28;20047;-81
2023/02/13 01:42:53;;;;;;;3.72;2.80;;;;;;;;;;10229246;28;20040;-81
2023/02/13 01:47:59;;;;;;;3.78;2.75;;;;;;;;;;10216401;28;20048;-81
2023/02/13 01:53:10;;;;;;;4.10;3.10;;;;;;;;;;10212173;28;20048;-81
2023/02/13 01:58:20;;;;;;;4.40;3.03;;;;;;;;;;10220201;28;20471;-81
2023/02/13 02:03:30;;;;;;;3.63;2.85;;;;;;;;;;10234405;29;20453;-81
2023/02/13 02:08:39;;;;;;;3.63;2.95;;;;;;;;;;10218732;28;20054;-81
2023/02/13 02:13:46;;;;;;;4.13;2.90;;;;;;;;;;10227740;28;20428;-80
2023/02/13 02:18:49;;;;;;;4.60;3.20;;;;;;;;;;10221750;28;20043;-81
2023/02/13 02:24:21;;;;;;;5.25;3.10;;;;;;;;;;10214336;29;20039;-81
2023/02/13 02:29:56;;;;;;;4.93;3.33;;;;;;;;;;10221802;28;20062;-82
2023/02/13 02:35:13;;;;;;;4.18;3.00;;;;;;;;;;10236242;28;20266;-81
2023/02/13 02:40:25;;;;;;;4.15;2.78;;;;;;;;;;10242667;28;20570;-81
2023/02/13 02:45:39;;;;;;;3.83;3.10;;;;;;;;;;10224151;28;20039;-81
2023/02/13 02:50:53;;;;;;;;;;;;;;;;;;10227762;28;20066;-82
2023/02/13 02:56:05;;;;;;;3.78;2.53;;;;;;;;;;10232927;28;19923;-81
2023/02/13 03:06:40;;;;;;;3.88;3.05;;;;;;;;;;10216697;29;20424;-81
2023/02/13 03:22:42;;;;;;;4.72;2.72;;;;;;;;;;10216143;28;20039;-80
2023/02/13 03:33:26;;;;;;;5.07;3.00;;;;;;;;;;10211722;29;20406;-79
2023/02/13 03:38:40;;;;;;;4.90;3.30;;;;;;;;;;10195939;29;20054;-80
2023/02/13 03:43:50;;;;;;;3.75;2.63;;;;;;;;;;10210320;29;20123;-80
2023/02/13 03:59:44;;;;;;;6.13;3.83;;;;;;;;;;10202617;28;20066;-79
2023/02/13 04:04:54;;;;;;;5.38;3.38;;;;;;;;;;10221473;28;20051;-80
2023/02/13 04:10:01;;;;;;;4.55;3.25;;;;;;;;;;10206636;28;20051;-81
2023/02/13 04:15:12;;;;;;;5.15;3.75;;;;;;;;;;10208256;28;20708;-80
2023/02/13 04:20:15;;;;;;;5.50;3.25;;;;;;;;;;10205516;28;20058;-79
2023/02/13 04:25:21;;;;;;;5.80;4.05;;;;;;;;;;10219615;28;20051;-80
2023/02/13 04:30:24;;;;;;;6.10;3.97;;;;;;;;;;10213107;28;20055;-79
2023/02/13 04:35:27;;;;;;;4.78;3.35;;;;;;;;;;10218281;28;20274;-81
2023/02/13 04:40:32;;;;;;;6.90;3.88;;;;;;;;;;10215576;28;20424;-79
2023/02/13 04:45:36;;;;;;;5.93;3.88;;;;;;;;;;10220773;28;20055;-80
2023/02/13 04:50:39;;;;;;;7.07;4.13;;;;;;;;;;10197420;29;20051;-80
2023/02/13 04:55:44;;;;;;;5.10;3.22;;;;;;;;;;10231307;28;20057;-80
2023/02/13 05:00:47;;;;;;;4.95;3.10;;;;;;;;;;10219517;28;20055;-81
2023/02/13 05:05:50;;;;;;;4.68;3.15;;;;;;;;;;10224733;29;20436;-80
2023/02/13 05:10:55;;;;;;;5.32;3.33;;;;;;;;;;10227835;28;20058;-79
2023/02/13 05:15:59;;;;;;;5.90;3.53;;;;;;;;;;10219185;29;20051;-79
2023/02/13 05:26:24;;;;;;;5.65;3.50;;;;;;;;;;10245410;28;20110;-82
2023/02/13 05:31:28;;;;;;;5.57;2.95;;;;;;;;;;10244954;28;20043;-82
2023/02/13 05:36:31;;;;;;;7.55;4.55;;;;;;;;;;10238553;28;20126;-82
2023/02/13 05:41:36;;;;;;;6.65;4.40;;;;;;;;;;10214405;28;20052;-83
2023/02/13 05:46:41;;;;;;;6.15;4.20;;;;;;;;;;10218284;28;20342;-83
2023/02/13 05:51:45;;;;;;;6.88;4.15;;;;;;;;;;10229577;28;20055;-83
2023/02/13 05:56:50;;;;;;;8.77;5.40;;;;;;;;;;10204093;29;20590;-81
2023/02/13 06:01:53;;;;;;;9.30;6.00;;;;;;;;;;10197636;28;20051;-80
2023/02/13 06:06:57;;;;;;;9.75;5.53;;;;;;;;;;10219540;28;20063;-81
2023/02/13 06:12:01;;;;;;;11.25;5.72;;;;;;;;;;10217985;28;20134;-82
2023/02/13 06:17:05;;;;;;;6.68;3.88;;;;;;;;;;10223885;28;20043;-81
2023/02/13 06:22:08;;;;;;;9.65;5.22;;;;;;;;;;10219294;28;20047;-81
2023/02/13 06:27:13;;;;;;;9.98;5.35;;;;;;;;;;10199017;28;20648;-82
2023/02/13 06:32:16;;;;;;;10.15;5.45;;;;;;;;;;10207141;29;20047;-82
2023/02/13 06:37:20;;;;;;;9.55;6.18;;;;;;;;;;10218748;28;20465;-81
2023/02/13 06:42:24;;;;;;;10.15;6.50;;;;;;;;;;10221735;28;20739;-80
2023/02/13 06:47:28;;;;;;;11.52;6.55;;;;;;;;;;10214071;28;20058;-80
2023/02/13 06:52:31;;;;;;;10.98;5.32;;;;;;;;;;10218461;28;20059;-82
2023/02/13 06:57:36;;;;;;;10.65;5.57;;;;;;;;;;10230283;28;20048;-82
2023/02/13 07:02:40;;;;;;;12.35;6.43;;;;;;;;;;10238178;28;20055;-82
2023/02/13 07:07:44;;;;;;;8.20;5.28;;;;;;;;;;10232827;28;20135;-82
2023/02/13 07:12:49;;;;;;;7.85;5.15;;;;;;;;;;10223697;28;20045;-83
2023/02/13 07:18:07;;;;;;;7.75;5.13;;;;;;;;;;10237395;28;20078;-82
2023/02/13 07:23:10;;;;;;;9.48;5.78;;;;;;;;;;10220931;29;20051;-82
2023/02/13 07:28:15;;;;;;;10.73;5.57;;;;;;;;;;10223118;28;20053;-82
2023/02/13 07:33:19;;;;;;;11.15;5.93;;;;;;;;;;10215113;29;20045;-82
2023/02/13 07:38:23;;;;;;;8.13;5.78;;;;;;;;;;10221996;29;20043;-81
2023/02/13 07:43:28;;;;;;;9.35;5.57;;;;;;;;;;10210841;28;20047;-81
2023/02/13 07:48:31;;;;;;;7.95;5.03;;;;;;;;;;10211642;29;20063;-81
2023/02/13 07:53:35;;;;;;;9.30;5.65;;;;;;;;;;10195963;29;20042;-81
2023/02/13 07:58:40;;;;;;;15.55;8.00;;;;;;;;;;10199802;28;20043;-81
2023/02/13 08:03:43;;;;;;;13.18;7.35;;;;;;;;;;10217598;29;20499;-81
2023/02/13 08:08:47;;;;;;;11.52;6.55;;;;;;;;;;10222544;28;20055;-83
2023/02/13 08:13:52;;;;;;;13.93;7.43;;;;;;;;;;10196401;29;20051;-81
2023/02/13 08:18:55;;;;;;;11.48;6.93;;;;;;;;;;10207726;28;20051;-80
2023/02/13 08:23:59;;;;;;;10.30;6.50;;;;;;;;;;10215635;28;20052;-80
2023/02/13 08:29:04;;;;;;;9.25;5.40;;;;;;;;;;10203918;29;20051;-80
2023/02/13 08:34:07;;;;;;;9.13;5.47;;;;;;;;;;10213378;29;20051;-81
2023/02/13 08:39:11;;;;;;;8.48;4.70;;;;;;;;;;10215397;28;20052;-81
2023/02/13 08:44:16;;;;;;;6.35;4.22;;;;;;;;;;10209040;28;20534;-81
2023/02/13 08:49:20;;;;;;;7.00;4.00;;;;;;;;;;10224234;28;20127;-81
2023/02/13 08:54:23;;;;;;;7.10;4.30;;;;;;;;;;10223408;29;20075;-82
2023/02/13 08:59:28;;;;;;;4.80;3.42;;;;;;;;;;10218971;28;20047;-81
2023/02/13 09:04:31;;;;;;;6.07;3.95;;;;;;;;;;10230160;29;20047;-82
2023/02/13 09:09:35;;;;;;;6.47;3.83;;;;;;;;;;10225555;28;20398;-82
2023/02/13 09:14:39;;;;;;;11.10;6.75;;;;;;;;;;10235326;29;20040;-82
2023/02/13 09:19:44;;;;;;;7.97;5.35;;;;;;;;;;10239091;29;20055;-81
2023/02/13 09:24:47;;;;;;;7.85;5.20;;;;;;;;;;10220323;29;20499;-82
2023/02/13 09:29:52;;;;;;;10.35;5.95;;;;;;;;;;10217187;28;20047;-82
2023/02/13 09:34:55;;;;;;;8.60;5.53;;;;;;;;;;10229218;28;20063;-82
2023/02/13 09:39:58;;;;;;;9.45;5.88;;;;;;;;;;10234445;28;20043;-82
2023/02/13 09:45:06;;;;;;;10.52;6.25;;;;;;;;;;10237031;28;20059;-81
2023/02/13 09:50:16;;;;;;;9.48;5.60;;;;;;;;;;10228861;28;20099;-82
2023/02/13 09:55:23;;;;;;;9.15;5.68;;;;;;;;;;10225311;28;20046;-82
2023/02/13 10:00:35;;;;;;;8.70;5.38;;;;;;;;;;10218018;28;20051;-82
2023/02/13 10:05:46;;;;;;;8.05;4.78;;;;;;;;;;10210928;29;20055;-82
2023/02/13 10:10:57;;;;;;;8.52;5.53;;;;;;;;;;10219726;28;20055;-82
2023/02/13 10:16:08;;;;;;;6.82;4.30;;;;;;;;;;10225634;28;20503;-82
2023/02/13 10:21:13;;;;;;;6.93;4.50;;;;;;;;;;10220674;28;20615;-82
2023/02/13 10:26:20;;;;;;;5.70;4.07;;;;;;;;;;10201757;29;20044;-82
2023/02/13 10:31:25;;;;;;;5.88;3.97;;;;;;;;;;10210525;29;20062;-82
2023/02/13 10:36:32;;;;;;;5.03;3.10;;;;;;;;;;10198062;28;20050;-82
2023/02/13 10:41:48;;;;;;;4.40;3.30;;;;;;;;;;10221467;28;20054;-82
2023/02/13 10:47:01;;;;;;;6.10;4.00;;;;;;;;;;10198565;28;20044;-82
2023/02/13 10:52:14;;;;;;;7.13;4.70;;;;;;;;;;10199798;29;20047;-82
2023/02/13 10:57:22;;;;;;;5.53;3.70;;;;;;;;;;10197851;28;20131;-82
2023/02/13 11:02:29;;;;;;;8.20;5.57;;;;;;;;;;10204945;29;20666;-82
2023/02/13 11:07:34;;;;;;;9.75;6.70;;;;;;;;;;10212175;28;20592;-82
2023/02/13 11:12:37;;;;;;;5.03;3.63;;;;;;;;;;10212664;28;20055;-82
2023/02/13 11:17:43;;;;;;;9.07;5.15;;;;;;;;;;10210760;28;20499;-81
2023/02/13 11:22:46;;;;;;;5.60;3.93;;;;;;;;;;10209258;29;20079;-82
2023/02/13 11:27:51;;;;;;;5.47;3.67;;;;;;;;;;10211674;28;20043;-82
2023/02/13 11:33:00;;;;;;;4.53;3.20;;;;;;;;;;10203272;29;20134;-82
2023/02/13 11:38:20;;;;;;;3.63;2.85;;;;;;;;;;10203029;29;20043;-82
2023/02/13 11:43:30;;;;;;;3.40;2.22;;;;;;;;;;10200314;29;20057;-82
2023/02/13 11:48:35;;;;;;;4.38;2.90;;;;;;;;;;10211100;28;20039;-82
2023/02/13 11:53:40;;;;;;;6.90;4.60;;;;;;;;;;10216543;29;20066;-82
2023/02/13 11:58:43;;;;;;;4.78;3.35;;;;;;;;;;10216767;28;20183;-83
2023/02/13 12:04:00;;;;;;;5.82;4.18;;;;;;;;;;10206466;29;20055;-83
2023/02/13 12:09:04;;;;;;;4.68;3.30;;;;;;;;;;10210436;28;20169;-82
2023/02/13 12:14:11;;;;;;;5.07;3.40;;;;;;;;;;10203539;29;20048;-82
2023/02/13 12:19:21;;;;;;;3.45;2.17;;;;;;;;;;10188589;29;20047;-82
2023/02/13 12:24:48;;;;;;;3.20;2.53;;;;;;;;;;10199732;29;20692;-81
2023/02/13 12:30:16;;;;;;;2.58;2.10;;;;;;;;;;10201126;29;20481;-82
2023/02/13 12:35:43;;;;;;;2.38;2.13;;;;;;;;;;10211738;29;20412;-82
2023/02/13 12:41:15;;;;;;;3.25;2.22;;;;;;;;;;10219671;28;20076;-82
2023/02/13 12:46:26;;;;;;;3.08;2.33;;;;;;;;;;10222796;28;20134;-81
2023/02/13 12:51:43;;;;;;;3.65;2.83;;;;;;;;;;10209445;28;20047;-82
2023/02/13 12:57:05;;;;;;;6.75;4.18;;;;;;;;;;10203963;29;20048;-81
2023/02/13 13:02:42;;;;;;;3.20;1.90;;;;;;;;;;10212314;29;20058;-82
2023/02/13 13:08:11;;;;;;;1.80;1.20;;;;;;;;;;10209354;28;20063;-81
2023/02/13 13:13:32;;;;;;;1.50;0.95;;;;;;;;;;10207332;29;20062;-83
2023/02/13 13:18:45;;;;;;;1.30;1.00;;;;;;;;;;10202863;28;20266;-81
2023/02/13 13:23:56;;;;;;;2.33;1.38;;;;;;;;;;10209128;28;20076;-82
2023/02/13 13:29:01;;;;;;;1.90;1.10;;;;;;;;;;10222696;28;20047;-82
2023/02/13 13:34:10;;;;;;;1.20;1.02;;;;;;;;;;10222161;28;20047;-82
2023/02/13 13:39:31;;;;;;;1.30;0.85;;;;;;;;;;10213736;28;20047;-81
2023/02/13 13:44:48;;;;;;;0.73;0.68;;;;;;;;;;10197063;29;20044;-85
2023/02/13 13:49:54;;;;;;;1.23;0.80;;;;;;;;;;10197670;28;20058;-82
2023/02/13 13:55:01;;;;;;;1.25;0.65;;;;;;;;;;10196267;28;20047;-83
2023/02/13 14:00:27;;;;;;;1.13;0.85;;;;;;;;;;10201409;28;20143;-82
2023/02/13 14:05:33;;;;;;;1.42;1.15;;;;;;;;;;10242972;28;20063;-82
2023/02/13 14:11:00;;;;;;;1.83;0.68;;;;;;;;;;10237003;29;20054;-82
2023/02/13 14:16:05;;;;;;;1.02;0.70;;;;;;;;;;10253612;28;20559;-82
2023/02/13 14:21:09;;;;;;;0.80;0.70;;;;;;;;;;10242514;28;20047;-81
2023/02/13 14:26:29;;;;;;;1.48;0.90;;;;;;;;;;10231636;28;20059;-80
2023/02/13 14:31:37;;;;;;;0.50;0.50;;;;;;;;;;10246606;28;20534;-81
2023/02/13 14:36:43;;;;;;;2.05;0.60;;;;;;;;;;10237195;28;20071;-82
2023/02/13 14:41:59;;;;;;;1.20;0.90;;;;;;;;;;10216089;28;20052;-81
2023/02/13 14:47:05;;;;;;;2.50;0.85;;;;;;;;;;10208269;28;20039;-81
2023/02/13 14:52:17;;;;;;;1.15;0.70;;;;;;;;;;10210519;28;20051;-82
2023/02/13 14:57:25;;;;;;;1.05;0.90;;;;;;;;;;10227058;28;20419;-82
2023/02/13 15:02:31;;;;;;;0.90;0.80;;;;;;;;;;10221340;28;20043;-82
2023/02/13 15:07:36;;;;;;;;;;;;;;;;;;10221866;28;20508;-82
2023/02/13 15:12:40;;;;;;;1.05;0.70;;;;;;;;;;10215900;28;19923;-83
2023/02/13 15:17:44;;;;;;;1.85;0.73;;;;;;;;;;10220659;29;20078;-82
2023/02/13 15:22:47;;;;;;;1.48;1.02;;;;;;;;;;10218712;28;20047;-82
2023/02/13 15:27:55;;;;;;;3.47;1.35;;;;;;;;;;10232021;28;20047;-82
2023/02/13 15:33:01;;;;;;;2.95;1.08;;;;;;;;;;10227193;29;20039;-82
2023/02/13 15:38:19;;;;;;;1.00;0.90;;;;;;;;;;10219259;28;20137;-82
2023/02/13 15:43:34;;;;;;;1.67;1.10;;;;;;;;;;10241250;28;20711;-82
2023/02/13 15:48:37;;;;;;;1.10;0.95;;;;;;;;;;10218990;28;20066;-82
2023/02/13 15:53:51;;;;;;;2.75;0.73;;;;;;;;;;10227320;28;20070;-82
2023/02/13 15:58:57;;;;;;;1.60;1.13;;;;;;;;;;10226898;28;20103;-82
2023/02/13 16:04:03;;;;;;;;;;;;;;;;;;10221244;28;20599;-82
2023/02/13 16:09:07;;;;;;;0.95;0.82;;;;;;;;;;10189104;29;19926;-81
2023/02/13 16:14:17;;;;;;;1.10;1.00;;;;;;;;;;10216544;29;20047;-81
2023/02/13 16:19:36;;;;;;;1.23;0.95;;;;;;;;;;10207192;28;20483;-81
2023/02/13 16:24:40;;;;;;;1.85;1.17;;;;;;;;;;10203830;29;20677;-81
2023/02/13 16:29:55;;;;;;;2.97;1.52;;;;;;;;;;10211454;28;20056;-81
2023/02/13 16:35:18;;;;;;;2.83;1.63;;;;;;;;;;10211889;28;20130;-81
2023/02/13 16:40:38;;;;;;;2.45;1.65;;;;;;;;;;10218467;28;20043;-82
2023/02/13 16:45:42;;;;;;;3.25;2.20;;;;;;;;;;10223977;28;20048;-82
2023/02/13 16:50:46;;;;;;;3.88;2.50;;;;;;;;;;10222985;28;20134;-82
2023/02/13 16:55:58;;;;;;;4.13;2.95;;;;;;;;;;10221739;28;20047;-82
2023/02/13 17:01:04;;;;;;;8.25;4.72;;;;;;;;;;10217845;28;20421;-82
2023/02/13 17:06:09;;;;;;;10.70;6.07;;;;;;;;;;10218587;28;20051;-82
2023/02/13 17:11:18;;;;;;;11.90;6.53;;;;;;;;;;10226467;28;20054;-82
2023/02/13 17:16:23;;;;;;;10.32;6.88;;;;;;;;;;10233553;28;20039;-81
2023/02/13 17:21:26;;;;;;;9.07;5.15;;;;;;;;;;10208938;28;20050;-81
2023/02/13 17:26:30;;;;;;;7.22;4.65;;;;;;;;;;10208727;28;20045;-82
2023/02/13 17:31:35;;;;;;;7.40;4.90;;;;;;;;;;10209831;28;20040;-81
2023/02/13 17:36:39;;;;;;;12.35;6.85;;;;;;;;;;10212915;28;20056;-81
2023/02/13 17:41:42;;;;;;;12.75;6.85;;;;;;;;;;10220095;28;20050;-82
2023/02/13 17:46:47;;;;;;;12.18;6.38;;;;;;;;;;10212273;29;20531;-81
2023/02/13 17:51:51;;;;;;;12.82;6.70;;;;;;;;;;10223451;28;20519;-81
2023/02/13 17:56:54;;;;;;;12.88;7.43;;;;;;;;;;10228515;28;20062;-81
2023/02/13 18:01:59;;;;;;;9.60;5.90;;;;;;;;;;10207014;29;20071;-81
2023/02/13 18:07:02;;;;;;;10.40;5.88;;;;;;;;;;10212425;28;20043;-81
2023/02/13 18:12:06;;;;;;;10.35;5.15;;;;;;;;;;10218335;28;20055;-82
2023/02/13 18:17:12;;;;;;;10.65;5.97;;;;;;;;;;10223604;28;20050;-80
2023/02/13 18:22:15;;;;;;;10.13;6.20;;;;;;;;;;10207199;28;20414;-80
2023/02/13 18:27:19;;;;;;;13.98;6.72;;;;;;;;;;10226297;28;20140;-80
2023/02/13 18:32:24;;;;;;;10.60;5.55;;;;;;;;;;10212493;29;20051;-81
2023/02/13 18:37:28;;;;;;;6.78;4.28;;;;;;;;;;10229491;28;20047;-81
2023/02/13 18:42:32;;;;;;;6.85;4.53;;;;;;;;;;10216957;28;20050;-81
2023/02/13 18:47:36;;;;;;;9.05;5.15;;;;;;;;;;10207213;28;20060;-80
2023/02/13 18:52:40;;;;;;;11.57;5.43;;;;;;;;;;10219328;28;20047;-81
2023/02/13 18:57:44;;;;;;;12.43;6.65;;;;;;;;;;10222900;28;20059;-81
2023/02/13 19:02:49;;;;;;;9.77;6.35;;;;;;;;;;10225324;28;20035;-81
2023/02/13 19:07:52;;;;;;;9.80;6.18;;;;;;;;;;10221453;28;20039;-81
2023/02/13 19:12:56;;;;;;;9.00;6.00;;;;;;;;;;10208482;28;20043;-81
2023/02/13 19:18:00;;;;;;;12.60;6.95;;;;;;;;;;10212693;28;20043;-79
2023/02/13 19:23:04;;;;;;;13.27;7.03;;;;;;;;;;10213222;28;20066;-79
2023/02/13 19:28:07;;;;;;;8.73;5.70;;;;;;;;;;10210970;28;20054;-80
2023/02/13 19:33:12;;;;;;;11.02;6.53;;;;;;;;;;10213812;28;20074;-80
2023/02/13 19:38:15;;;;;;;9.10;5.72;;;;;;;;;;10208197;28;20051;-81
2023/02/13 19:43:19;;;;;;;6.90;4.82;;;;;;;;;;10210889;29;20048;-80
2023/02/13 19:48:23;;;;;;;6.88;4.60;;;;;;;;;;10187076;28;20418;-80
2023/02/13 19:53:27;;;;;;;10.23;5.82;;;;;;;;;;10208840;29;20127;-81
2023/02/13 19:58:30;;;;;;;11.90;6.57;;;;;;;;;;10201011;28;20051;-79
2023/02/13 20:03:36;;;;;;;11.05;6.22;;;;;;;;;;10218013;29;20035;-79
2023/02/13 20:08:39;;;;;;;11.27;6.90;;;;;;;;;;10211645;28;20055;-79
2023/02/13 20:13:45;;;;;;;13.50;7.73;;;;;;;;;;10203631;29;20131;-79
2023/02/13 20:18:50;;;;;;;14.50;8.38;;;;;;;;;;10204715;28;20290;-79
2023/02/13 20:23:53;;;;;;;19.52;9.32;;;;;;;;;;10209533;29;20055;-79
2023/02/13 20:28:58;;;;;;;13.32;8.18;;;;;;;;;;10209514;28;20048;-79
2023/02/13 20:34:06;;;;;;;10.70;6.15;;;;;;;;;;10197343;29;20442;-80
2023/02/13 20:39:10;;;;;;;13.57;7.15;;;;;;;;;;10215434;28;20035;-79
2023/02/13 20:44:15;;;;;;;11.20;6.15;;;;;;;;;;10206867;28;20043;-81
2023/02/13 20:49:20;;;;;;;10.05;5.47;;;;;;;;;;10211357;28;20134;-80
2023/02/13 20:54:24;;;;;;;11.93;6.35;;;;;;;;;;10214299;28;20404;-79
2023/02/13 20:59:28;;;;;;;8.70;5.57;;;;;;;;;;10219064;28;20484;-82
2023/02/13 21:04:33;;;;;;;9.95;5.40;;;;;;;;;;10205143;28;20052;-82
2023/02/13 21:09:37;;;;;;;8.40;4.80;;;;;;;;;;10211602;28;20055;-82
2023/02/13 21:14:40;;;;;;;10.90;5.85;;;;;;;;;;10204561;29;20043;-81
2023/02/13 21:19:45;;;;;;;13.38;7.32;;;;;;;;;;10214185;29;20052;-81
2023/02/13 21:24:50;;;;;;;13.23;7.72;;;;;;;;;;10214161;29;20042;-81
2023/02/13 21:29:53;;;;;;;9.27;5.70;;;;;;;;;;10215903;28;20054;-81
2023/02/13 21:34:58;;;;;;;8.95;5.57;;;;;;;;;;10209915;28;20070;-81
2023/02/13 21:40:02;;;;;;;8.48;4.63;;;;;;;;;;10216771;28;20051;-82
2023/02/13 21:45:06;;;;;;;8.43;4.88;;;;;;;;;;10215609;28;20106;-81
2023/02/13 21:50:11;;;;;;;8.77;5.72;;;;;;;;;;10212624;28;20114;-82
2023/02/13 21:55:15;;;;;;;12.13;5.80;;;;;;;;;;10216584;28;20051;-81
2023/02/13 22:00:18;;;;;;;8.88;4.70;;;;;;;;;;10217423;28;20050;-81
2023/02/13 22:05:24;;;;;;;6.38;4.28;;;;;;;;;;10215613;28;20090;-81
2023/02/13 22:10:28;;;;;;;7.00;4.18;;;;;;;;;;10211934;28;20781;-82
2023/02/13 22:15:31;;;;;;;6.60;4.55;;;;;;;;;;10210890;28;20388;-82
2023/02/13 22:20:36;;;;;;;7.60;4.88;;;;;;;;;;10217899;28;20043;-81
2023/02/13 22:25:40;;;;;;;13.02;6.10;;;;;;;;;;10217312;28;20095;-81
2023/02/13 22:30:43;;;;;;;10.13;5.43;;;;;;;;;;10205701;29;20859;-82
2023/02/13 22:35:48;;;;;;;8.45;5.00;;;;;;;;;;10212798;28;20605;-81
2023/02/13 22:40:51;;;;;;;8.10;5.40;;;;;;;;;;10219360;28;20708;-82
2023/02/13 22:45:55;;;;;;;7.72;4.40;;;;;;;;;;10218919;28;20047;-80
2023/02/13 22:51:06;;;;;;;5.32;3.85;;;;;;;;;;10208631;28;20122;-82
2023/02/13 22:56:10;;;;;;;7.30;4.10;;;;;;;;;;10193607;29;20563;-81
2023/02/13 23:01:16;;;;;;;5.72;3.30;;;;;;;;;;10216809;28;20692;-82
2023/02/13 23:06:21;;;;;;;5.20;3.40;;;;;;;;;;10214532;28;20047;-81
2023/02/13 23:22:12;;;;;;;7.00;4.43;;;;;;;;;;10218007;28;20044;-81
2023/02/13 23:27:15;;;;;;;6.10;3.65;;;;;;;;;;10204883;28;20062;-81
2023/02/13 23:32:19;;;;;;;5.80;3.80;;;;;;;;;;10194993;29;20051;-80
2023/02/13 23:37:24;;;;;;;6.45;4.10;;;;;;;;;;10207621;28;20135;-81
2023/02/13 23:42:27;;;;;;;9.55;4.60;;;;;;;;;;10204013;28;20565;-81
2023/02/13 23:47:30;;;;;;;11.30;5.53;;;;;;;;;;10207118;28;20055;-81
2023/02/13 23:52:35;;;;;;;7.97;5.07;;;;;;;;;;10195793;28;20071;-81
2023/02/13 23:57:39;;;;;;;8.82;4.40;;;;;;;;;;10185345;29;20048;-80
